sensor_id;sensor_type;location;lat;lon;timestamp;P1;durP1;ratioP1;P2;durP2;ratioP2
15354;SDS011;7777;52.254;9.618;2024-02-26T00:01:41;5.50;;;3.27;;
15354;SDS011;7777;52.254;9.618;2024-02-26T00:04:08;7.70;;;3.30;;
15354;SDS011;7777;52.254;9.618;2024-02-26T00:06:34;5.40;;;2.70;;
15354;SDS011;7777;52.254;9.618;2024-02-26T00:09:01;7.00;;;2.10;;
15354;SDS011;7777;52.254;9.618;2024-02-26T00:11:28;3.10;;;1.67;;
15354;SDS011;7777;52.254;9.618;2024-02-26T00:13:54;3.73;;;1.97;;
15354;SDS011;7777;52.254;9.618;2024-02-26T00:16:19;4.10;;;2.03;;
15354;SDS011;7777;52.254;9.618;2024-02-26T00:18:45;3.73;;;2.13;;
15354;SDS011;7777;52.254;9.618;2024-02-26T00:21:11;4.20;;;2.63;;
15354;SDS011;7777;52.254;9.618;2024-02-26T00:23:37;4.60;;;2.67;;
15354;SDS011;7777;52.254;9.618;2024-02-26T00:26:03;7.43;;;2.20;;
15354;SDS011;7777;52.254;9.618;2024-02-26T00:28:28;4.07;;;2.00;;
15354;SDS011;7777;52.254;9.618;2024-02-26T00:30:54;3.70;;;2.00;;
15354;SDS011;7777;52.254;9.618;2024-02-26T00:33:21;4.17;;;2.17;;
15354;SDS011;7777;52.254;9.618;2024-02-26T00:35:47;4.73;;;2.70;;
15354;SDS011;7777;52.254;9.618;2024-02-26T00:38:14;4.33;;;2.70;;
15354;SDS011;7777;52.254;9.618;2024-02-26T00:40:39;7.60;;;2.27;;
15354;SDS011;7777;52.254;9.618;2024-02-26T00:43:06;4.00;;;2.10;;
15354;SDS011;7777;52.254;9.618;2024-02-26T00:45:32;3.40;;;2.03;;
15354;SDS011;7777;52.254;9.618;2024-02-26T00:47:58;4.37;;;2.10;;
15354;SDS011;7777;52.254;9.618;2024-02-26T00:50:29;4.97;;;1.87;;
15354;SDS011;7777;52.254;9.618;2024-02-26T00:52:55;3.47;;;1.80;;
15354;SDS011;7777;52.254;9.618;2024-02-26T00:55:21;3.40;;;1.90;;
15354;SDS011;7777;52.254;9.618;2024-02-26T00:57:47;2.57;;;1.50;;
15354;SDS011;7777;52.254;9.618;2024-02-26T01:00:14;5.70;;;1.83;;
15354;SDS011;7777;52.254;9.618;2024-02-26T01:02:40;2.70;;;1.57;;
15354;SDS011;7777;52.254;9.618;2024-02-26T01:05:07;2.60;;;1.50;;
15354;SDS011;7777;52.254;9.618;2024-02-26T01:07:34;1.63;;;1.33;;
15354;SDS011;7777;52.254;9.618;2024-02-26T01:10:04;3.73;;;1.90;;
15354;SDS011;7777;52.254;9.618;2024-02-26T01:12:31;2.97;;;1.87;;
15354;SDS011;7777;52.254;9.618;2024-02-26T01:15:03;3.90;;;1.83;;
15354;SDS011;7777;52.254;9.618;2024-02-26T01:17:29;6.37;;;1.60;;
15354;SDS011;7777;52.254;9.618;2024-02-26T01:19:55;2.47;;;1.40;;
15354;SDS011;7777;52.254;9.618;2024-02-26T01:22:21;3.20;;;2.00;;
15354;SDS011;7777;52.254;9.618;2024-02-26T01:24:47;3.60;;;1.83;;
15354;SDS011;7777;52.254;9.618;2024-02-26T01:27:13;4.17;;;1.93;;
15354;SDS011;7777;52.254;9.618;2024-02-26T01:29:40;2.00;;;1.50;;
15354;SDS011;7777;52.254;9.618;2024-02-26T01:32:06;2.73;;;1.60;;
15354;SDS011;7777;52.254;9.618;2024-02-26T01:34:32;3.83;;;2.03;;
15354;SDS011;7777;52.254;9.618;2024-02-26T01:36:58;2.47;;;1.83;;
15354;SDS011;7777;52.254;9.618;2024-02-26T01:39:25;4.37;;;1.73;;
15354;SDS011;7777;52.254;9.618;2024-02-26T01:41:52;3.50;;;1.70;;
15354;SDS011;7777;52.254;9.618;2024-02-26T01:44:18;4.00;;;2.00;;
15354;SDS011;7777;52.254;9.618;2024-02-26T01:46:44;2.20;;;1.47;;
15354;SDS011;7777;52.254;9.618;2024-02-26T01:49:11;2.90;;;1.60;;
15354;SDS011;7777;52.254;9.618;2024-02-26T01:51:38;1.93;;;1.30;;
15354;SDS011;7777;52.254;9.618;2024-02-26T01:54:06;2.70;;;1.93;;
15354;SDS011;7777;52.254;9.618;2024-02-26T01:56:33;3.40;;;1.83;;
15354;SDS011;7777;52.254;9.618;2024-02-26T01:59:00;3.67;;;1.80;;
15354;SDS011;7777;52.254;9.618;2024-02-26T02:01:27;2.73;;;1.70;;
15354;SDS011;7777;52.254;9.618;2024-02-26T02:03:57;2.67;;;1.63;;
15354;SDS011;7777;52.254;9.618;2024-02-26T02:06:25;5.37;;;2.50;;
15354;SDS011;7777;52.254;9.618;2024-02-26T02:08:52;6.57;;;2.87;;
15354;SDS011;7777;52.254;9.618;2024-02-26T02:11:20;4.50;;;2.53;;
15354;SDS011;7777;52.254;9.618;2024-02-26T02:13:46;4.60;;;2.60;;
15354;SDS011;7777;52.254;9.618;2024-02-26T02:16:12;5.77;;;2.80;;
15354;SDS011;7777;52.254;9.618;2024-02-26T02:18:38;5.20;;;3.07;;
15354;SDS011;7777;52.254;9.618;2024-02-26T02:21:04;5.53;;;3.90;;
15354;SDS011;7777;52.254;9.618;2024-02-26T02:23:30;4.13;;;2.33;;
15354;SDS011;7777;52.254;9.618;2024-02-26T02:25:56;3.30;;;2.23;;
15354;SDS011;7777;52.254;9.618;2024-02-26T02:28:26;4.27;;;2.57;;
15354;SDS011;7777;52.254;9.618;2024-02-26T02:30:52;3.93;;;2.40;;
15354;SDS011;7777;52.254;9.618;2024-02-26T02:33:18;3.97;;;2.23;;
15354;SDS011;7777;52.254;9.618;2024-02-26T02:35:46;6.10;;;2.90;;
15354;SDS011;7777;52.254;9.618;2024-02-26T02:38:11;5.17;;;2.93;;
15354;SDS011;7777;52.254;9.618;2024-02-26T02:40:37;4.30;;;2.47;;
15354;SDS011;7777;52.254;9.618;2024-02-26T02:43:03;3.00;;;2.00;;
15354;SDS011;7777;52.254;9.618;2024-02-26T02:45:29;4.07;;;2.30;;
15354;SDS011;7777;52.254;9.618;2024-02-26T02:47:55;5.63;;;2.30;;
15354;SDS011;7777;52.254;9.618;2024-02-26T02:50:22;4.13;;;2.40;;
15354;SDS011;7777;52.254;9.618;2024-02-26T02:52:48;2.03;;;1.40;;
15354;SDS011;7777;52.254;9.618;2024-02-26T02:55:16;4.33;;;1.87;;
15354;SDS011;7777;52.254;9.618;2024-02-26T02:57:42;2.20;;;1.40;;
15354;SDS011;7777;52.254;9.618;2024-02-26T03:00:08;3.47;;;2.00;;
15354;SDS011;7777;52.254;9.618;2024-02-26T03:02:35;2.40;;;1.67;;
15354;SDS011;7777;52.254;9.618;2024-02-26T03:05:05;3.13;;;2.10;;
15354;SDS011;7777;52.254;9.618;2024-02-26T03:07:31;2.57;;;1.50;;
15354;SDS011;7777;52.254;9.618;2024-02-26T03:09:57;3.57;;;2.27;;
15354;SDS011;7777;52.254;9.618;2024-02-26T03:12:23;4.75;;;1.90;;
15354;SDS011;7777;52.254;9.618;2024-02-26T03:14:48;2.43;;;1.50;;
15354;SDS011;7777;52.254;9.618;2024-02-26T03:17:16;3.37;;;1.57;;
15354;SDS011;7777;52.254;9.618;2024-02-26T03:19:43;3.03;;;1.73;;
15354;SDS011;7777;52.254;9.618;2024-02-26T03:22:11;3.27;;;1.80;;
15354;SDS011;7777;52.254;9.618;2024-02-26T03:24:40;3.20;;;1.90;;
15354;SDS011;7777;52.254;9.618;2024-02-26T03:27:06;3.97;;;2.00;;
15354;SDS011;7777;52.254;9.618;2024-02-26T03:29:34;4.80;;;1.40;;
15354;SDS011;7777;52.254;9.618;2024-02-26T03:32:01;2.00;;;1.43;;
15354;SDS011;7777;52.254;9.618;2024-02-26T03:34:27;2.87;;;1.63;;
15354;SDS011;7777;52.254;9.618;2024-02-26T03:36:53;1.90;;;1.40;;
15354;SDS011;7777;52.254;9.618;2024-02-26T03:39:19;3.27;;;1.90;;
15354;SDS011;7777;52.254;9.618;2024-02-26T03:41:44;6.20;;;2.00;;
15354;SDS011;7777;52.254;9.618;2024-02-26T03:44:10;2.43;;;1.60;;
15354;SDS011;7777;52.254;9.618;2024-02-26T03:46:37;4.00;;;2.10;;
15354;SDS011;7777;52.254;9.618;2024-02-26T03:49:02;3.03;;;1.60;;
15354;SDS011;7777;52.254;9.618;2024-02-26T03:51:28;2.47;;;1.70;;
15354;SDS011;7777;52.254;9.618;2024-02-26T03:53:56;5.00;;;1.90;;
15354;SDS011;7777;52.254;9.618;2024-02-26T03:56:23;2.90;;;2.10;;
15354;SDS011;7777;52.254;9.618;2024-02-26T03:58:49;4.40;;;2.20;;
15354;SDS011;7777;52.254;9.618;2024-02-26T04:01:15;4.63;;;2.20;;
15354;SDS011;7777;52.254;9.618;2024-02-26T04:03:41;4.10;;;2.10;;
15354;SDS011;7777;52.254;9.618;2024-02-26T04:06:10;2.73;;;1.73;;
15354;SDS011;7777;52.254;9.618;2024-02-26T04:08:39;3.30;;;2.10;;
15354;SDS011;7777;52.254;9.618;2024-02-26T04:11:06;3.63;;;2.07;;
15354;SDS011;7777;52.254;9.618;2024-02-26T04:13:35;5.20;;;2.07;;
15354;SDS011;7777;52.254;9.618;2024-02-26T04:16:03;4.63;;;2.00;;
15354;SDS011;7777;52.254;9.618;2024-02-26T04:18:30;3.37;;;1.80;;
15354;SDS011;7777;52.254;9.618;2024-02-26T04:20:57;3.83;;;2.33;;
15354;SDS011;7777;52.254;9.618;2024-02-26T04:23:23;4.33;;;2.33;;
15354;SDS011;7777;52.254;9.618;2024-02-26T04:25:49;2.73;;;1.90;;
15354;SDS011;7777;52.254;9.618;2024-02-26T04:28:15;2.97;;;1.83;;
15354;SDS011;7777;52.254;9.618;2024-02-26T04:30:41;3.07;;;1.70;;
15354;SDS011;7777;52.254;9.618;2024-02-26T04:33:07;3.00;;;1.93;;
15354;SDS011;7777;52.254;9.618;2024-02-26T04:35:33;3.57;;;1.83;;
15354;SDS011;7777;52.254;9.618;2024-02-26T04:38:00;3.43;;;2.03;;
15354;SDS011;7777;52.254;9.618;2024-02-26T04:40:26;3.73;;;2.17;;
15354;SDS011;7777;52.254;9.618;2024-02-26T04:42:51;5.17;;;2.13;;
15354;SDS011;7777;52.254;9.618;2024-02-26T04:45:18;2.90;;;1.70;;
15354;SDS011;7777;52.254;9.618;2024-02-26T04:47:43;3.40;;;2.10;;
15354;SDS011;7777;52.254;9.618;2024-02-26T04:50:09;2.67;;;1.60;;
15354;SDS011;7777;52.254;9.618;2024-02-26T04:52:35;3.10;;;2.20;;
15354;SDS011;7777;52.254;9.618;2024-02-26T04:55:02;3.27;;;1.83;;
15354;SDS011;7777;52.254;9.618;2024-02-26T04:57:29;4.00;;;1.87;;
15354;SDS011;7777;52.254;9.618;2024-02-26T04:59:56;2.73;;;1.70;;
15354;SDS011;7777;52.254;9.618;2024-02-26T05:02:22;2.73;;;2.07;;
15354;SDS011;7777;52.254;9.618;2024-02-26T05:04:48;3.17;;;2.07;;
15354;SDS011;7777;52.254;9.618;2024-02-26T05:07:13;2.77;;;1.90;;
15354;SDS011;7777;52.254;9.618;2024-02-26T05:09:40;5.90;;;2.10;;
15354;SDS011;7777;52.254;9.618;2024-02-26T05:12:07;8.10;;;2.53;;
15354;SDS011;7777;52.254;9.618;2024-02-26T05:14:32;4.73;;;2.60;;
15354;SDS011;7777;52.254;9.618;2024-02-26T05:16:58;4.67;;;2.20;;
15354;SDS011;7777;52.254;9.618;2024-02-26T05:19:24;4.53;;;2.20;;
15354;SDS011;7777;52.254;9.618;2024-02-26T05:21:53;3.57;;;2.40;;
15354;SDS011;7777;52.254;9.618;2024-02-26T05:24:20;6.57;;;2.67;;
15354;SDS011;7777;52.254;9.618;2024-02-26T05:26:47;4.37;;;2.87;;
15354;SDS011;7777;52.254;9.618;2024-02-26T05:29:14;5.63;;;2.80;;
15354;SDS011;7777;52.254;9.618;2024-02-26T05:31:42;4.77;;;3.00;;
15354;SDS011;7777;52.254;9.618;2024-02-26T05:34:08;4.07;;;2.70;;
15354;SDS011;7777;52.254;9.618;2024-02-26T05:36:34;8.53;;;2.87;;
15354;SDS011;7777;52.254;9.618;2024-02-26T05:39:00;4.37;;;2.80;;
15354;SDS011;7777;52.254;9.618;2024-02-26T05:41:26;6.17;;;3.23;;
15354;SDS011;7777;52.254;9.618;2024-02-26T05:43:53;4.90;;;3.20;;
15354;SDS011;7777;52.254;9.618;2024-02-26T05:46:19;6.77;;;3.90;;
15354;SDS011;7777;52.254;9.618;2024-02-26T05:48:50;5.67;;;3.20;;
15354;SDS011;7777;52.254;9.618;2024-02-26T05:51:17;4.30;;;2.80;;
15354;SDS011;7777;52.254;9.618;2024-02-26T05:53:42;8.10;;;3.30;;
15354;SDS011;7777;52.254;9.618;2024-02-26T05:56:08;8.40;;;3.27;;
15354;SDS011;7777;52.254;9.618;2024-02-26T05:58:34;4.87;;;3.10;;
15354;SDS011;7777;52.254;9.618;2024-02-26T06:01:00;4.30;;;2.83;;
15354;SDS011;7777;52.254;9.618;2024-02-26T06:03:26;4.63;;;3.10;;
15354;SDS011;7777;52.254;9.618;2024-02-26T06:05:52;8.63;;;3.13;;
15354;SDS011;7777;52.254;9.618;2024-02-26T06:08:17;6.53;;;3.37;;
15354;SDS011;7777;52.254;9.618;2024-02-26T06:10:44;6.43;;;3.90;;
15354;SDS011;7777;52.254;9.618;2024-02-26T06:13:10;7.43;;;3.40;;
15354;SDS011;7777;52.254;9.618;2024-02-26T06:15:36;5.30;;;3.43;;
15354;SDS011;7777;52.254;9.618;2024-02-26T06:18:02;6.60;;;3.97;;
15354;SDS011;7777;52.254;9.618;2024-02-26T06:20:28;8.53;;;4.10;;
15354;SDS011;7777;52.254;9.618;2024-02-26T06:22:54;5.63;;;3.70;;
15354;SDS011;7777;52.254;9.618;2024-02-26T06:25:20;7.57;;;4.20;;
15354;SDS011;7777;52.254;9.618;2024-02-26T06:27:46;7.13;;;4.00;;
15354;SDS011;7777;52.254;9.618;2024-02-26T06:30:12;5.83;;;3.87;;
15354;SDS011;7777;52.254;9.618;2024-02-26T06:32:38;9.80;;;4.03;;
15354;SDS011;7777;52.254;9.618;2024-02-26T06:35:04;5.80;;;3.50;;
15354;SDS011;7777;52.254;9.618;2024-02-26T06:37:32;7.67;;;4.33;;
15354;SDS011;7777;52.254;9.618;2024-02-26T06:39:58;5.07;;;3.53;;
15354;SDS011;7777;52.254;9.618;2024-02-26T06:42:31;5.70;;;3.77;;
15354;SDS011;7777;52.254;9.618;2024-02-26T06:44:58;8.20;;;4.20;;
15354;SDS011;7777;52.254;9.618;2024-02-26T06:47:24;6.00;;;3.87;;
15354;SDS011;7777;52.254;9.618;2024-02-26T06:49:50;5.97;;;3.57;;
15354;SDS011;7777;52.254;9.618;2024-02-26T06:52:17;6.60;;;4.30;;
15354;SDS011;7777;52.254;9.618;2024-02-26T06:54:42;9.07;;;4.33;;
15354;SDS011;7777;52.254;9.618;2024-02-26T06:57:08;6.90;;;4.37;;
15354;SDS011;7777;52.254;9.618;2024-02-26T06:59:34;7.00;;;3.97;;
15354;SDS011;7777;52.254;9.618;2024-02-26T07:01:59;9.10;;;3.90;;
15354;SDS011;7777;52.254;9.618;2024-02-26T07:04:25;10.60;;;4.10;;
15354;SDS011;7777;52.254;9.618;2024-02-26T07:06:51;6.80;;;3.90;;
15354;SDS011;7777;52.254;9.618;2024-02-26T07:09:16;8.70;;;3.90;;
15354;SDS011;7777;52.254;9.618;2024-02-26T07:11:42;8.53;;;4.43;;
15354;SDS011;7777;52.254;9.618;2024-02-26T07:14:08;8.97;;;4.03;;
15354;SDS011;7777;52.254;9.618;2024-02-26T07:16:35;5.87;;;3.37;;
15354;SDS011;7777;52.254;9.618;2024-02-26T07:19:01;5.77;;;3.53;;
15354;SDS011;7777;52.254;9.618;2024-02-26T07:21:28;8.17;;;4.07;;
15354;SDS011;7777;52.254;9.618;2024-02-26T07:23:54;6.80;;;3.87;;
15354;SDS011;7777;52.254;9.618;2024-02-26T07:26:19;8.17;;;4.07;;
15354;SDS011;7777;52.254;9.618;2024-02-26T07:28:45;8.73;;;3.60;;
15354;SDS011;7777;52.254;9.618;2024-02-26T07:31:11;5.07;;;3.70;;
15354;SDS011;7777;52.254;9.618;2024-02-26T07:33:37;6.07;;;4.20;;
15354;SDS011;7777;52.254;9.618;2024-02-26T07:36:03;6.63;;;3.93;;
15354;SDS011;7777;52.254;9.618;2024-02-26T07:38:29;6.07;;;4.30;;
15354;SDS011;7777;52.254;9.618;2024-02-26T07:40:54;12.73;;;4.83;;
15354;SDS011;7777;52.254;9.618;2024-02-26T07:43:21;6.20;;;4.33;;
15354;SDS011;7777;52.254;9.618;2024-02-26T07:45:47;5.87;;;3.80;;
15354;SDS011;7777;52.254;9.618;2024-02-26T07:48:13;9.97;;;4.37;;
15354;SDS011;7777;52.254;9.618;2024-02-26T07:50:39;8.80;;;5.10;;
15354;SDS011;7777;52.254;9.618;2024-02-26T07:53:06;7.83;;;4.17;;
15354;SDS011;7777;52.254;9.618;2024-02-26T07:55:31;9.03;;;4.50;;
15354;SDS011;7777;52.254;9.618;2024-02-26T07:57:57;8.43;;;4.50;;
15354;SDS011;7777;52.254;9.618;2024-02-26T08:00:23;8.77;;;4.30;;
15354;SDS011;7777;52.254;9.618;2024-02-26T08:02:49;7.73;;;5.13;;
15354;SDS011;7777;52.254;9.618;2024-02-26T08:05:15;9.33;;;4.60;;
15354;SDS011;7777;52.254;9.618;2024-02-26T08:07:41;6.50;;;4.57;;
15354;SDS011;7777;52.254;9.618;2024-02-26T08:10:07;5.80;;;4.37;;
15354;SDS011;7777;52.254;9.618;2024-02-26T08:12:35;6.50;;;4.20;;
15354;SDS011;7777;52.254;9.618;2024-02-26T08:15:01;8.03;;;5.17;;
15354;SDS011;7777;52.254;9.618;2024-02-26T08:17:27;8.57;;;5.17;;
15354;SDS011;7777;52.254;9.618;2024-02-26T08:19:53;6.97;;;4.37;;
15354;SDS011;7777;52.254;9.618;2024-02-26T08:22:18;13.37;;;4.90;;
15354;SDS011;7777;52.254;9.618;2024-02-26T08:24:44;8.13;;;4.70;;
15354;SDS011;7777;52.254;9.618;2024-02-26T08:27:10;6.37;;;4.70;;
15354;SDS011;7777;52.254;9.618;2024-02-26T08:29:35;7.63;;;4.70;;
15354;SDS011;7777;52.254;9.618;2024-02-26T08:32:01;7.73;;;4.80;;
15354;SDS011;7777;52.254;9.618;2024-02-26T08:34:27;8.83;;;4.77;;
15354;SDS011;7777;52.254;9.618;2024-02-26T08:36:53;6.93;;;4.43;;
15354;SDS011;7777;52.254;9.618;2024-02-26T08:39:19;11.70;;;4.30;;
15354;SDS011;7777;52.254;9.618;2024-02-26T08:41:45;5.80;;;4.27;;
15354;SDS011;7777;52.254;9.618;2024-02-26T08:44:11;6.50;;;4.60;;
15354;SDS011;7777;52.254;9.618;2024-02-26T08:46:37;7.47;;;4.63;;
15354;SDS011;7777;52.254;9.618;2024-02-26T08:49:03;6.73;;;4.70;;
15354;SDS011;7777;52.254;9.618;2024-02-26T08:51:29;7.73;;;5.00;;
15354;SDS011;7777;52.254;9.618;2024-02-26T08:53:54;8.87;;;4.80;;
15354;SDS011;7777;52.254;9.618;2024-02-26T08:56:20;6.67;;;5.00;;
15354;SDS011;7777;52.254;9.618;2024-02-26T08:58:46;9.77;;;5.20;;
15354;SDS011;7777;52.254;9.618;2024-02-26T09:01:18;5.87;;;4.40;;
15354;SDS011;7777;52.254;9.618;2024-02-26T09:03:44;5.97;;;4.33;;
15354;SDS011;7777;52.254;9.618;2024-02-26T09:06:10;5.90;;;4.23;;
15354;SDS011;7777;52.254;9.618;2024-02-26T09:08:37;5.50;;;3.93;;
15354;SDS011;7777;52.254;9.618;2024-02-26T09:11:02;12.80;;;4.87;;
15354;SDS011;7777;52.254;9.618;2024-02-26T09:13:29;6.20;;;4.23;;
15354;SDS011;7777;52.254;9.618;2024-02-26T09:15:55;9.00;;;5.10;;
15354;SDS011;7777;52.254;9.618;2024-02-26T09:18:20;7.90;;;4.93;;
15354;SDS011;7777;52.254;9.618;2024-02-26T09:20:46;6.87;;;5.10;;
15354;SDS011;7777;52.254;9.618;2024-02-26T09:23:12;7.40;;;4.97;;
15354;SDS011;7777;52.254;9.618;2024-02-26T09:25:39;8.20;;;5.60;;
15354;SDS011;7777;52.254;9.618;2024-02-26T09:28:05;6.50;;;4.63;;
15354;SDS011;7777;52.254;9.618;2024-02-26T09:30:31;7.97;;;4.70;;
15354;SDS011;7777;52.254;9.618;2024-02-26T09:32:57;7.43;;;4.70;;
15354;SDS011;7777;52.254;9.618;2024-02-26T09:35:23;7.47;;;5.17;;
15354;SDS011;7777;52.254;9.618;2024-02-26T09:37:49;11.90;;;4.70;;
15354;SDS011;7777;52.254;9.618;2024-02-26T09:40:14;8.40;;;4.77;;
15354;SDS011;7777;52.254;9.618;2024-02-26T09:42:42;7.60;;;4.60;;
15354;SDS011;7777;52.254;9.618;2024-02-26T09:45:12;8.50;;;5.30;;
15354;SDS011;7777;52.254;9.618;2024-02-26T09:47:44;5.83;;;4.73;;
15354;SDS011;7777;52.254;9.618;2024-02-26T09:50:10;6.20;;;4.17;;
15354;SDS011;7777;52.254;9.618;2024-02-26T09:52:38;4.73;;;3.83;;
15354;SDS011;7777;52.254;9.618;2024-02-26T09:55:07;13.43;;;4.53;;
15354;SDS011;7777;52.254;9.618;2024-02-26T09:57:35;7.93;;;4.67;;
15354;SDS011;7777;52.254;9.618;2024-02-26T10:00:03;7.83;;;5.10;;
15354;SDS011;7777;52.254;9.618;2024-02-26T10:02:33;5.40;;;3.93;;
15354;SDS011;7777;52.254;9.618;2024-02-26T10:05:02;7.77;;;4.67;;
15354;SDS011;7777;52.254;9.618;2024-02-26T10:07:30;7.63;;;5.10;;
15354;SDS011;7777;52.254;9.618;2024-02-26T10:09:56;9.00;;;5.83;;
15354;SDS011;7777;52.254;9.618;2024-02-26T10:12:22;7.30;;;5.40;;
15354;SDS011;7777;52.254;9.618;2024-02-26T10:14:50;7.93;;;4.80;;
15354;SDS011;7777;52.254;9.618;2024-02-26T10:17:16;6.37;;;4.33;;
15354;SDS011;7777;52.254;9.618;2024-02-26T10:19:44;6.67;;;4.13;;
15354;SDS011;7777;52.254;9.618;2024-02-26T10:22:09;10.03;;;5.23;;
15354;SDS011;7777;52.254;9.618;2024-02-26T10:24:36;9.43;;;5.03;;
15354;SDS011;7777;52.254;9.618;2024-02-26T10:27:02;11.10;;;5.30;;
15354;SDS011;7777;52.254;9.618;2024-02-26T10:29:28;8.53;;;4.67;;
15354;SDS011;7777;52.254;9.618;2024-02-26T10:31:54;9.03;;;5.70;;
15354;SDS011;7777;52.254;9.618;2024-02-26T10:34:20;15.47;;;5.63;;
15354;SDS011;7777;52.254;9.618;2024-02-26T10:36:46;9.10;;;5.40;;
15354;SDS011;7777;52.254;9.618;2024-02-26T10:39:12;9.33;;;4.93;;
15354;SDS011;7777;52.254;9.618;2024-02-26T10:41:42;7.33;;;4.50;;
15354;SDS011;7777;52.254;9.618;2024-02-26T10:44:09;7.87;;;5.23;;
15354;SDS011;7777;52.254;9.618;2024-02-26T10:46:46;12.63;;;5.07;;
15354;SDS011;7777;52.254;9.618;2024-02-26T10:49:14;9.20;;;4.63;;
15354;SDS011;7777;52.254;9.618;2024-02-26T10:51:45;8.90;;;4.80;;
15354;SDS011;7777;52.254;9.618;2024-02-26T10:54:17;10.73;;;4.77;;
15354;SDS011;7777;52.254;9.618;2024-02-26T10:56:45;6.47;;;4.67;;
15354;SDS011;7777;52.254;9.618;2024-02-26T10:59:13;11.80;;;5.33;;
15354;SDS011;7777;52.254;9.618;2024-02-26T11:01:45;7.37;;;4.37;;
15354;SDS011;7777;52.254;9.618;2024-02-26T11:04:14;7.17;;;4.63;;
15354;SDS011;7777;52.254;9.618;2024-02-26T11:06:42;7.07;;;4.87;;
15354;SDS011;7777;52.254;9.618;2024-02-26T11:09:10;8.73;;;4.67;;
15354;SDS011;7777;52.254;9.618;2024-02-26T11:11:39;7.57;;;5.20;;
15354;SDS011;7777;52.254;9.618;2024-02-26T11:14:06;7.77;;;4.50;;
15354;SDS011;7777;52.254;9.618;2024-02-26T11:16:34;6.37;;;3.43;;
15354;SDS011;7777;52.254;9.618;2024-02-26T11:19:01;7.87;;;3.67;;
15354;SDS011;7777;52.254;9.618;2024-02-26T11:21:28;5.37;;;3.63;;
15354;SDS011;7777;52.254;9.618;2024-02-26T11:24:08;6.80;;;3.50;;
15354;SDS011;7777;52.254;9.618;2024-02-26T11:26:50;4.00;;;2.87;;
15354;SDS011;7777;52.254;9.618;2024-02-26T11:29:29;5.03;;;3.40;;
15354;SDS011;7777;52.254;9.618;2024-02-26T11:32:03;6.07;;;3.57;;
15354;SDS011;7777;52.254;9.618;2024-02-26T11:34:29;4.33;;;2.73;;
15354;SDS011;7777;52.254;9.618;2024-02-26T11:36:55;6.17;;;3.50;;
15354;SDS011;7777;52.254;9.618;2024-02-26T11:39:21;5.67;;;2.90;;
15354;SDS011;7777;52.254;9.618;2024-02-26T11:41:48;6.23;;;3.00;;
15354;SDS011;7777;52.254;9.618;2024-02-26T11:44:15;5.57;;;3.10;;
15354;SDS011;7777;52.254;9.618;2024-02-26T11:46:55;5.57;;;3.20;;
15354;SDS011;7777;52.254;9.618;2024-02-26T11:51:56;7.67;;;3.00;;
15354;SDS011;7777;52.254;9.618;2024-02-26T11:59:47;5.67;;;3.57;;
15354;SDS011;7777;52.254;9.618;2024-02-26T12:07:55;7.50;;;2.97;;
15354;SDS011;7777;52.254;9.618;2024-02-26T12:10:26;5.80;;;3.20;;
15354;SDS011;7777;52.254;9.618;2024-02-26T12:13:00;7.03;;;3.47;;
15354;SDS011;7777;52.254;9.618;2024-02-26T12:15:41;5.20;;;2.93;;
15354;SDS011;7777;52.254;9.618;2024-02-26T12:18:09;6.17;;;2.50;;
15354;SDS011;7777;52.254;9.618;2024-02-26T12:20:41;7.37;;;3.63;;
15354;SDS011;7777;52.254;9.618;2024-02-26T12:23:08;6.37;;;3.80;;
15354;SDS011;7777;52.254;9.618;2024-02-26T12:25:39;3.83;;;2.57;;
15354;SDS011;7777;52.254;9.618;2024-02-26T12:28:06;4.57;;;3.10;;
15354;SDS011;7777;52.254;9.618;2024-02-26T12:30:32;4.07;;;2.73;;
15354;SDS011;7777;52.254;9.618;2024-02-26T12:32:58;4.93;;;3.10;;
15354;SDS011;7777;52.254;9.618;2024-02-26T12:35:25;5.60;;;3.50;;
15354;SDS011;7777;52.254;9.618;2024-02-26T12:37:53;5.57;;;3.03;;
15354;SDS011;7777;52.254;9.618;2024-02-26T12:40:19;6.03;;;3.73;;
15354;SDS011;7777;52.254;9.618;2024-02-26T12:42:45;4.37;;;2.93;;
15354;SDS011;7777;52.254;9.618;2024-02-26T12:45:12;5.57;;;3.70;;
15354;SDS011;7777;52.254;9.618;2024-02-26T12:47:40;4.93;;;3.50;;
15354;SDS011;7777;52.254;9.618;2024-02-26T12:50:07;8.10;;;4.60;;
15354;SDS011;7777;52.254;9.618;2024-02-26T12:52:35;6.40;;;3.53;;
15354;SDS011;7777;52.254;9.618;2024-02-26T12:55:05;5.80;;;3.93;;
15354;SDS011;7777;52.254;9.618;2024-02-26T12:57:36;7.43;;;3.87;;
15354;SDS011;7777;52.254;9.618;2024-02-26T13:00:06;5.97;;;3.73;;
15354;SDS011;7777;52.254;9.618;2024-02-26T13:02:35;6.27;;;3.67;;
15354;SDS011;7777;52.254;9.618;2024-02-26T13:05:05;6.97;;;3.50;;
15354;SDS011;7777;52.254;9.618;2024-02-26T13:07:33;4.70;;;3.30;;
15354;SDS011;7777;52.254;9.618;2024-02-26T13:09:59;7.87;;;3.37;;
15354;SDS011;7777;52.254;9.618;2024-02-26T13:12:25;5.57;;;3.47;;
15354;SDS011;7777;52.254;9.618;2024-02-26T13:14:58;5.13;;;3.73;;
15354;SDS011;7777;52.254;9.618;2024-02-26T13:17:32;6.10;;;3.57;;
15354;SDS011;7777;52.254;9.618;2024-02-26T13:19:58;5.80;;;3.43;;
15354;SDS011;7777;52.254;9.618;2024-02-26T13:22:23;7.10;;;3.37;;
15354;SDS011;7777;52.254;9.618;2024-02-26T13:24:56;5.93;;;3.20;;
15354;SDS011;7777;52.254;9.618;2024-02-26T13:27:22;4.67;;;2.90;;
15354;SDS011;7777;52.254;9.618;2024-02-26T13:29:49;3.87;;;2.77;;
15354;SDS011;7777;52.254;9.618;2024-02-26T13:32:35;6.07;;;3.60;;
15354;SDS011;7777;52.254;9.618;2024-02-26T13:35:06;3.93;;;2.67;;
15354;SDS011;7777;52.254;9.618;2024-02-26T13:37:36;4.93;;;3.17;;
15354;SDS011;7777;52.254;9.618;2024-02-26T13:40:04;6.33;;;3.50;;
15354;SDS011;7777;52.254;9.618;2024-02-26T13:42:31;6.00;;;3.30;;
15354;SDS011;7777;52.254;9.618;2024-02-26T13:44:57;3.67;;;2.67;;
15354;SDS011;7777;52.254;9.618;2024-02-26T13:47:23;4.13;;;2.60;;
15354;SDS011;7777;52.254;9.618;2024-02-26T13:49:51;5.10;;;3.20;;
15354;SDS011;7777;52.254;9.618;2024-02-26T13:52:17;7.27;;;3.20;;
15354;SDS011;7777;52.254;9.618;2024-02-26T13:54:45;5.87;;;3.10;;
15354;SDS011;7777;52.254;9.618;2024-02-26T13:57:11;6.33;;;4.20;;
15354;SDS011;7777;52.254;9.618;2024-02-26T13:59:37;4.77;;;3.37;;
15354;SDS011;7777;52.254;9.618;2024-02-26T14:02:06;6.00;;;3.00;;
15354;SDS011;7777;52.254;9.618;2024-02-26T14:04:32;6.90;;;4.10;;
15354;SDS011;7777;52.254;9.618;2024-02-26T14:06:58;5.47;;;3.70;;
15354;SDS011;7777;52.254;9.618;2024-02-26T14:09:23;5.63;;;3.63;;
15354;SDS011;7777;52.254;9.618;2024-02-26T14:11:49;5.83;;;3.70;;
15354;SDS011;7777;52.254;9.618;2024-02-26T14:14:15;6.47;;;3.13;;
15354;SDS011;7777;52.254;9.618;2024-02-26T14:16:41;5.77;;;3.30;;
15354;SDS011;7777;52.254;9.618;2024-02-26T14:19:08;4.33;;;2.90;;
15354;SDS011;7777;52.254;9.618;2024-02-26T14:21:33;6.27;;;2.87;;
15354;SDS011;7777;52.254;9.618;2024-02-26T14:24:00;4.37;;;2.90;;
15354;SDS011;7777;52.254;9.618;2024-02-26T14:26:26;8.57;;;3.67;;
15354;SDS011;7777;52.254;9.618;2024-02-26T14:28:52;5.77;;;3.60;;
15354;SDS011;7777;52.254;9.618;2024-02-26T14:31:17;7.93;;;3.83;;
15354;SDS011;7777;52.254;9.618;2024-02-26T14:33:44;6.63;;;3.60;;
15354;SDS011;7777;52.254;9.618;2024-02-26T14:36:09;7.73;;;3.83;;
15354;SDS011;7777;52.254;9.618;2024-02-26T14:38:36;5.90;;;3.80;;
15354;SDS011;7777;52.254;9.618;2024-02-26T14:41:02;5.70;;;3.70;;
15354;SDS011;7777;52.254;9.618;2024-02-26T14:43:29;6.50;;;3.60;;
15354;SDS011;7777;52.254;9.618;2024-02-26T14:45:57;5.77;;;3.40;;
15354;SDS011;7777;52.254;9.618;2024-02-26T14:48:23;10.60;;;4.23;;
15354;SDS011;7777;52.254;9.618;2024-02-26T14:50:49;5.83;;;3.30;;
15354;SDS011;7777;52.254;9.618;2024-02-26T14:53:15;5.47;;;3.10;;
15354;SDS011;7777;52.254;9.618;2024-02-26T14:55:42;6.00;;;3.67;;
15354;SDS011;7777;52.254;9.618;2024-02-26T14:58:08;8.73;;;4.67;;
15354;SDS011;7777;52.254;9.618;2024-02-26T15:00:36;7.53;;;3.60;;
15354;SDS011;7777;52.254;9.618;2024-02-26T15:03:02;8.40;;;4.60;;
15354;SDS011;7777;52.254;9.618;2024-02-26T15:05:28;7.00;;;3.40;;
15354;SDS011;7777;52.254;9.618;2024-02-26T15:07:54;4.87;;;3.10;;
15354;SDS011;7777;52.254;9.618;2024-02-26T15:10:20;9.47;;;3.30;;
15354;SDS011;7777;52.254;9.618;2024-02-26T15:12:45;5.23;;;3.40;;